Time;durP1;ratioP1;P1;durP2;ratioP2;P2;SDS_P1;SDS_P2;PMS_P1;PMS_P2;Temp;Humidity;BMP_temperature;BMP_pressure;BME280_temperature;BME280_humidity;BME280_pressure;Samples;Min_cycle;Max_cycle;Signal;HPM_P1;HPM_P2
2021/06/30 00:02:06;;;;;;;649.23;614.30;;;;;;;-144.99;96.81;52232.03;5071785;28;20296;-72
2021/06/30 00:04:32;;;;;;;698.27;659.70;;;;;;;-144.99;97.31;52183.13;5070897;28;20237;-71
2021/06/30 00:06:59;;;;;;;835.03;785.90;;;;;;;-144.99;97.40;52199.44;5066825;28;20206;-72
2021/06/30 00:09:26;;;;;;;832.40;783.33;;;;;;;-144.99;97.66;52227.97;5072116;28;20240;-73
2021/06/30 00:11:53;;;;;;;812.10;764.33;;;;;;;-144.99;98.18;52211.66;5071454;28;20210;-73
2021/06/30 00:14:20;;;;;;;857.87;807.73;;;;;;;-144.99;98.34;52215.75;5070598;28;20235;-70
2021/06/30 00:16:48;;;;;;;856.23;806.17;;;;;;;-144.99;98.41;52219.81;5071038;28;20205;-70
2021/06/30 00:19:16;;;;;;;808.67;761.50;;;;;;;-144.99;98.35;52223.88;5071110;28;20237;-70
2021/06/30 00:21:42;;;;;;;379.67;364.20;;;;;;;-144.99;98.63;52215.75;5069204;28;20220;-72
2021/06/30 00:24:09;;;;;;;757.17;713.93;;;;;;;-144.99;98.84;52207.59;5071121;28;20205;-72
2021/06/30 00:26:37;;;;;;;781.60;737.60;;;;;;;-144.99;98.73;52242.22;5071456;28;20210;-72
2021/06/30 00:29:04;;;;;;;792.63;747.03;;;;;;;-144.99;98.53;52199.44;5071571;28;20237;-73
2021/06/30 00:31:30;;;;;;;851.13;800.90;;;;;;;-144.99;98.61;52236.13;5070831;28;20209;-73
2021/06/30 00:34:01;;;;;;;950.80;893.97;;;;;;;-144.99;98.56;52219.81;5070861;28;20253;-70
2021/06/30 00:36:31;;;;;;;863.23;812.53;;;;;;;-144.99;98.45;52252.44;5070571;28;20403;-70
2021/06/30 00:38:57;;;;;;;869.20;818.20;;;;;;;-144.99;98.50;52240.19;5071051;28;20255;-70
2021/06/30 00:41:24;;;;;;;865.07;814.47;;;;;;;-144.99;98.64;52215.75;5071027;28;20225;-69
2021/06/30 00:43:50;;;;;;;867.63;816.47;;;;;;;-144.99;98.54;52240.19;5070898;28;20214;-69
2021/06/30 00:46:24;;;;;;;819.47;771.43;;;;;;;-144.99;98.58;52195.34;5070426;28;20552;-69
2021/06/30 00:48:50;;;;;;;846.20;796.60;;;;;;;-144.99;98.54;52203.50;5070768;28;20225;-70
2021/06/30 00:51:17;;;;;;;766.60;722.03;;;;;;;-144.99;98.60;52211.66;5070677;28;20210;-70
2021/06/30 00:53:45;;;;;;;744.60;702.30;;;;;;;-144.99;98.73;52244.28;5066159;28;20255;-70
2021/06/30 00:56:12;;;;;;;806.57;759.43;;;;;;;-144.99;98.84;52236.13;5071546;28;20206;-70
2021/06/30 00:58:40;;;;;;;848.83;799.30;;;;;;;-144.99;98.72;52207.59;5071817;28;20230;-70
2021/06/30 01:01:07;;;;;;;810.00;762.63;;;;;;;-144.99;98.79;52227.97;5067176;28;20210;-70
2021/06/30 01:03:33;;;;;;;861.60;810.40;;;;;;;-144.99;98.86;52236.13;5065182;28;20213;-70
2021/06/30 01:06:00;;;;;;;857.33;806.43;;;;;;;-144.99;98.77;52217.78;5073522;28;20217;-70
2021/06/30 01:08:28;;;;;;;859.33;808.80;;;;;;;-144.99;98.72;52211.66;5080312;28;20234;-70
2021/06/30 01:10:56;;;;;;;883.83;831.73;;;;;;;-144.99;98.74;52219.81;5077777;28;20716;-70
2021/06/30 01:13:23;;;;;;;801.07;754.57;;;;;;;-144.99;98.68;52225.94;5088429;22;20229;-58
2021/06/30 01:15:55;;;;;;;944.87;888.63;;;;;;;-144.99;98.50;52215.75;5083396;28;20205;-59
2021/06/30 01:18:22;;;;;;;935.20;879.53;;;;;;;-144.99;98.68;52193.31;5087626;28;20297;-60
2021/06/30 01:20:49;;;;;;;923.53;867.93;;;;;;;-144.99;98.79;52223.88;5070624;28;20285;-59
2021/06/30 01:23:17;;;;;;;879.30;827.13;;;;;;;-144.99;98.96;52223.88;5070462;28;20659;-59
2021/06/30 01:25:44;;;;;;;924.13;868.63;;;;;;;-144.99;99.15;52256.50;5070306;28;20210;-60
2021/06/30 01:28:11;;;;;;;936.93;880.50;;;;;;;-144.99;99.10;52227.97;5069166;28;20209;-60
2021/06/30 01:30:39;;;;;;;914.37;859.50;;;;;;;-144.99;99.26;52248.34;5070822;28;20251;-60
2021/06/30 01:33:07;;;;;;;920.50;864.53;;;;;;;-144.99;99.30;52236.13;5070979;28;20561;-60
2021/06/30 01:35:34;;;;;;;998.90;937.60;;;;;;;-144.99;99.19;52225.94;5070403;28;20259;-59
2021/06/30 01:38:01;;;;;;;895.73;842.97;;;;;;;-144.99;99.21;52244.28;5071264;28;20275;-59
2021/06/30 01:40:29;;;;;;;1002.73;941.70;;;;;;;-144.99;99.13;52223.88;5069404;28;20231;-59
2021/06/30 01:42:57;;;;;;;936.70;880.47;;;;;;;-144.99;99.36;52195.34;5071299;28;20544;-59
2021/06/30 01:45:24;;;;;;;929.97;873.93;;;;;;;-144.99;99.24;52211.66;5070729;28;20604;-59
2021/06/30 01:47:51;;;;;;;945.03;887.27;;;;;;;-144.99;99.13;52199.44;5070072;28;20640;-59
2021/06/30 01:50:17;;;;;;;931.00;874.60;;;;;;;-144.99;98.89;52217.78;5069913;28;20233;-59
2021/06/30 01:52:45;;;;;;;990.93;930.90;;;;;;;-144.99;98.67;52225.94;5064044;28;20210;-62
2021/06/30 01:55:13;;;;;;;995.93;935.80;;;;;;;-144.99;98.65;52215.75;5069846;28;20230;-62
2021/06/30 01:57:42;;;;;;;1017.83;955.70;;;;;;;-144.99;98.62;52219.81;5069667;28;20562;-61
2021/06/30 02:00:10;;;;;;;947.70;890.10;;;;;;;-144.99;98.73;52227.97;5070171;28;20240;-62
2021/06/30 02:02:37;;;;;;;963.77;905.70;;;;;;;-144.99;98.42;52211.66;5070333;28;20221;-62
2021/06/30 02:05:09;;;;;;;1004.30;943.53;;;;;;;-144.99;98.37;52215.75;5067006;28;20296;-62
2021/06/30 02:07:36;;;;;;;996.23;935.77;;;;;;;-144.99;98.39;52227.97;5067425;28;20214;-61
2021/06/30 02:10:05;;;;;;;946.33;889.83;;;;;;;-144.99;98.30;52219.81;5070006;28;20229;-61
2021/06/30 02:12:31;;;;;;;1024.73;961.23;;;;;;;-144.99;98.34;52187.19;5070361;28;20222;-61
2021/06/30 02:15:00;;;;;;;1023.50;958.87;;;;;;;-144.99;98.22;52207.59;5070233;28;20255;-61
2021/06/30 02:17:26;;;;;;;996.30;934.40;;;;;;;-144.99;98.14;52240.19;5070218;28;20204;-61
2021/06/30 02:19:53;;;;;;;1008.80;946.93;;;;;;;-144.99;98.26;52227.97;5067547;28;20252;-61
2021/06/30 02:22:19;;;;;;;1023.70;960.40;;;;;;;-144.99;98.09;52240.19;5069676;28;20221;-60
2021/06/30 02:24:46;;;;;;;1054.83;988.03;;;;;;;-144.99;98.00;52227.97;5069437;28;20210;-60
2021/06/30 02:27:13;;;;;;;1047.03;980.73;;;;;;;-144.99;98.18;52219.81;5069856;28;20245;-61
2021/06/30 02:29:39;;;;;;;995.80;935.17;;;;;;;-144.99;98.11;52221.84;5068369;28;20600;-61
2021/06/30 02:32:08;;;;;;;1023.47;959.67;;;;;;;-144.99;98.16;52238.16;5069525;28;20221;-63
2021/06/30 02:34:39;;;;;;;1014.93;951.67;;;;;;;-144.99;98.16;52232.03;5068472;28;20322;-63
2021/06/30 02:37:06;;;;;;;1033.93;969.77;;;;;;;-144.99;98.37;52219.81;5064068;28;20236;-65
2021/06/30 02:39:32;;;;;;;1040.47;974.87;;;;;;;-144.99;98.50;52219.81;5068625;28;20611;-60
2021/06/30 02:41:59;;;;;;;1019.90;955.30;;;;;;;-144.99;98.47;52227.97;5068287;28;20217;-60
2021/06/30 02:44:26;;;;;;;1029.57;965.87;;;;;;;-144.99;98.61;52223.88;5069413;28;20220;-61
2021/06/30 02:46:53;;;;;;;1027.47;962.23;;;;;;;-144.99;98.77;52244.28;5069462;28;20239;-60
2021/06/30 02:49:21;;;;;;;1034.43;969.37;;;;;;;-144.99;98.52;52264.66;5068925;28;20238;-60
2021/06/30 02:51:48;;;;;;;1034.37;970.03;;;;;;;-144.99;98.54;52297.25;5067062;28;20206;-61
2021/06/30 02:54:14;;;;;;;1026.43;963.50;;;;;;;-144.99;98.36;52217.78;5067158;28;20234;-60
2021/06/30 02:56:41;;;;;;;1028.77;965.20;;;;;;;-144.99;98.35;52248.34;5069881;28;20206;-61
2021/06/30 02:59:07;;;;;;;1050.80;984.07;;;;;;;-144.99;98.40;52195.34;5069795;28;20238;-61
2021/06/30 03:01:34;;;;;;;1054.93;988.23;;;;;;;-144.99;98.38;52191.28;5070235;28;20210;-61
2021/06/30 03:04:01;;;;;;;1056.33;986.93;;;;;;;-144.99;98.39;52223.88;5070380;28;20690;-61
2021/06/30 03:06:29;;;;;;;1056.17;985.70;;;;;;;-144.99;98.27;52227.97;5064400;28;20626;-60
2021/06/30 03:08:55;;;;;;;1045.93;977.10;;;;;;;-144.99;98.16;52211.66;5068839;28;20235;-61
2021/06/30 03:11:22;;;;;;;1042.83;973.77;;;;;;;-144.99;98.28;52252.44;5070109;28;20330;-60
2021/06/30 03:13:49;;;;;;;1053.60;982.40;;;;;;;-144.99;98.28;52244.28;5069949;28;20743;-61
2021/06/30 03:16:16;;;;;;;1074.00;999.73;;;;;;;-144.99;98.35;52236.13;5069389;28;20216;-60
2021/06/30 03:18:42;;;;;;;1071.03;996.20;;;;;;;-144.99;98.19;52264.66;5068622;28;20226;-61
2021/06/30 03:21:09;;;;;;;1045.37;972.97;;;;;;;-144.99;97.92;52232.03;5067573;28;20223;-60
2021/06/30 03:23:38;;;;;;;1037.70;964.00;;;;;;;-144.99;97.91;52232.03;5069565;28;20401;-61
2021/06/30 03:26:05;;;;;;;1042.17;969.60;;;;;;;-144.99;97.87;52201.47;5075265;28;20209;-60
2021/06/30 03:28:31;;;;;;;1037.70;966.00;;;;;;;-144.99;97.65;52244.28;5075947;28;20597;-61
2021/06/30 03:30:58;;;;;;;1034.20;960.20;;;;;;;-144.99;97.81;52240.19;5074997;28;20284;-60
2021/06/30 03:33:25;;;;;;;1038.90;965.87;;;;;;;-144.99;97.69;52234.09;5075691;28;20222;-60
2021/06/30 03:35:51;;;;;;;1044.23;970.00;;;;;;;-144.99;97.71;52215.75;5075646;28;20226;-60
2021/06/30 03:38:18;;;;;;;1042.70;968.97;;;;;;;-144.99;97.81;52256.50;5075867;28;20200;-61
2021/06/30 03:40:46;;;;;;;1028.27;957.03;;;;;;;-144.99;97.79;52246.31;5076075;28;20228;-61
2021/06/30 03:43:13;;;;;;;1018.53;945.33;;;;;;;-144.99;97.64;52191.28;5075732;28;20213;-61
2021/06/30 03:45:40;;;;;;;1021.87;946.90;;;;;;;-144.99;97.53;52225.94;5076009;28;20225;-61
2021/06/30 03:48:06;;;;;;;1029.10;952.90;;;;;;;-144.99;97.55;52227.97;5075437;28;20216;-60
2021/06/30 03:50:33;;;;;;;1015.97;940.53;;;;;;;-144.99;97.24;52213.69;5074500;28;20576;-61
2021/06/30 03:53:00;;;;;;;1018.73;942.63;;;;;;;-144.99;97.04;52211.66;5070787;28;20215;-61
2021/06/30 03:55:26;;;;;;;1021.70;945.43;;;;;;;-144.99;97.03;52195.34;5075607;28;20226;-59
2021/06/30 03:57:54;;;;;;;1028.17;958.10;;;;;;;-144.99;96.87;52230.00;5075629;28;20210;-58
2021/06/30 04:00:23;;;;;;;1022.17;949.73;;;;;;;-144.99;96.73;52227.97;5075549;28;20233;-58
2021/06/30 04:02:49;;;;;;;995.97;922.90;;;;;;;-144.99;96.30;52203.50;5075857;28;20214;-61
2021/06/30 04:05:16;;;;;;;1027.83;954.83;;;;;;;-144.99;96.32;52211.66;5071072;28;20397;-61
2021/06/30 04:07:42;;;;;;;992.90;918.30;;;;;;;-144.99;96.18;52215.75;5074952;28;20217;-61
2021/06/30 04:10:10;;;;;;;989.77;914.67;;;;;;;-144.99;96.57;52246.31;5074820;28;20256;-61
2021/06/30 04:12:36;;;;;;;986.23;910.77;;;;;;;-144.99;96.57;52225.94;5074955;28;20214;-61
2021/06/30 04:15:06;;;;;;;1003.20;927.10;;;;;;;-144.99;96.37;52203.50;5075271;28;20234;-61
2021/06/30 04:17:34;;;;;;;981.77;906.50;;;;;;;-144.99;96.36;52260.56;5074748;28;20207;-58
2021/06/30 04:20:01;;;;;;;979.47;904.03;;;;;;;-144.99;96.21;52240.19;5072683;28;20238;-59
2021/06/30 04:22:27;;;;;;;961.80;886.30;;;;;;;-144.99;96.40;52256.50;5074014;28;20671;-61
2021/06/30 04:24:54;;;;;;;996.13;920.30;;;;;;;-144.99;96.45;52215.75;5075357;28;20210;-62
2021/06/30 04:27:20;;;;;;;987.00;910.90;;;;;;;-144.99;96.33;52199.44;5075553;28;20217;-61
2021/06/30 04:29:47;;;;;;;976.23;900.77;;;;;;;-144.99;96.45;52211.66;5074979;28;20234;-61
2021/06/30 04:32:15;;;;;;;980.30;905.00;;;;;;;-144.99;96.14;52195.34;5074774;28;20678;-61
2021/06/30 04:34:42;;;;;;;975.20;900.10;;;;;;;-144.99;96.55;52225.94;5074927;28;20662;-61
2021/06/30 04:37:09;;;;;;;965.00;890.20;;;;;;;-144.99;96.35;52227.97;5071754;28;20209;-61
2021/06/30 04:39:35;;;;;;;958.43;883.97;;;;;;;-144.99;96.24;52213.69;5071023;28;20248;-61
2021/06/30 04:42:02;;;;;;;967.53;892.53;;;;;;;-144.99;96.03;52244.28;5071522;28;20580;-61
2021/06/30 04:44:29;;;;;;;974.60;899.57;;;;;;;-144.99;95.88;52215.75;5071703;28;20302;-61
2021/06/30 04:46:55;;;;;;;950.80;876.60;;;;;;;-144.99;95.95;52223.88;5071521;28;20691;-61
2021/06/30 04:49:23;;;;;;;949.07;875.07;;;;;;;-144.99;95.85;52213.69;5070746;28;20232;-68
2021/06/30 04:51:50;;;;;;;946.97;872.83;;;;;;;-144.99;95.61;52195.34;5070095;28;20214;-68
2021/06/30 04:54:17;;;;;;;935.47;861.57;;;;;;;-144.99;95.32;52252.44;5070671;28;20215;-68
2021/06/30 04:56:43;;;;;;;950.37;876.03;;;;;;;-144.99;95.13;52207.59;5071606;28;20203;-67
2021/06/30 04:59:10;;;;;;;929.47;856.10;;;;;;;-144.99;95.04;52232.03;5071594;28;20696;-68
2021/06/30 05:01:37;;;;;;;951.63;877.40;;;;;;;-144.99;94.68;52223.88;5071438;28;20212;-64
2021/06/30 05:04:04;;;;;;;946.13;872.23;;;;;;;-144.99;94.32;52207.59;4005601;28;10001034;-65
2021/06/30 05:06:34;;;;;;;941.03;867.23;;;;;;;-144.99;94.43;52207.59;5057021;28;20247;-65
2021/06/30 05:09:00;;;;;;;957.33;882.57;;;;;;;-144.99;94.16;52232.03;5068345;28;20243;-65
2021/06/30 05:11:27;;;;;;;944.30;870.07;;;;;;;-144.99;94.01;52236.13;5068067;28;20315;-65
2021/06/30 05:13:53;;;;;;;957.23;882.90;;;;;;;-144.99;94.00;52266.69;5068111;28;20218;-65
2021/06/30 05:16:21;;;;;;;952.47;878.13;;;;;;;-144.99;93.89;52203.50;5067874;28;20234;-65
2021/06/30 05:18:47;;;;;;;952.13;878.13;;;;;;;-144.99;93.88;52207.59;5068254;28;20297;-66
2021/06/30 05:21:14;;;;;;;935.23;861.27;;;;;;;-144.99;93.92;52209.63;5064685;28;20211;-66
2021/06/30 05:23:42;;;;;;;954.97;880.83;;;;;;;-144.99;93.77;52232.03;5066675;28;20214;-67
2021/06/30 05:26:08;;;;;;;928.07;854.47;;;;;;;-144.99;93.72;52219.81;5067406;28;20739;-66
2021/06/30 05:28:35;;;;;;;941.80;867.73;;;;;;;-144.99;93.73;52211.66;5067628;28;20559;-66
2021/06/30 05:31:02;;;;;;;946.90;873.03;;;;;;;-144.99;93.38;52227.97;5067617;28;20214;-66
2021/06/30 05:33:29;;;;;;;936.60;863.00;;;;;;;-144.99;93.01;52232.03;5066592;28;20755;-66
2021/06/30 05:35:55;;;;;;;954.00;879.57;;;;;;;-144.99;93.05;52223.88;5066545;28;20234;-67
2021/06/30 05:38:22;;;;;;;945.97;871.57;;;;;;;-144.99;93.33;52187.19;5066827;28;20214;-66
2021/06/30 05:40:51;;;;;;;922.50;849.27;;;;;;;-144.99;93.36;52240.19;5066799;28;20287;-66
2021/06/30 05:43:18;;;;;;;898.37;825.53;;;;;;;-144.99;93.33;52242.22;5066643;28;20574;-67
2021/06/30 05:45:46;;;;;;;934.40;860.87;;;;;;;-144.99;93.56;52236.13;5066786;28;20208;-66
2021/06/30 05:48:13;;;;;;;930.63;857.33;;;;;;;-144.99;93.35;52199.44;5066798;28;20216;-66
2021/06/30 05:50:40;;;;;;;931.20;857.73;;;;;;;-144.99;93.24;52238.16;5066490;28;20221;-67
2021/06/30 05:53:07;;;;;;;898.83;826.33;;;;;;;-144.99;93.30;52236.13;5066407;28;20647;-65
2021/06/30 05:55:34;;;;;;;895.77;823.37;;;;;;;-144.99;93.31;52256.50;5066914;28;20262;-68
2021/06/30 05:58:02;;;;;;;903.43;830.63;;;;;;;-144.99;93.57;52207.59;5066724;28;20210;-66
2021/06/30 06:00:28;;;;;;;927.70;854.17;;;;;;;-144.99;93.64;52266.69;5066298;28;20234;-65
2021/06/30 06:02:55;;;;;;;915.77;842.57;;;;;;;-144.99;93.91;52256.50;5065518;28;20234;-66
2021/06/30 06:05:21;;;;;;;876.87;804.97;;;;;;;-144.99;93.87;52232.03;5061709;28;20238;-66
2021/06/30 06:07:48;;;;;;;920.10;847.03;;;;;;;-144.99;93.54;52213.69;5054585;28;20241;-67
2021/06/30 06:10:14;;;;;;;884.83;812.77;;;;;;;-144.99;93.91;52213.69;5067085;28;20696;-66
2021/06/30 06:12:41;;;;;;;880.80;808.77;;;;;;;-144.99;93.87;52223.88;5067008;28;20221;-67
2021/06/30 06:15:11;;;;;;;917.53;844.13;;;;;;;-144.99;93.78;52244.28;5065948;28;20281;-66
2021/06/30 06:17:39;;;;;;;913.87;840.83;;;;;;;-144.99;93.71;52268.72;5066439;28;20457;-66
2021/06/30 06:20:08;;;;;;;920.73;847.80;;;;;;;-144.99;93.66;52252.44;5064344;28;20237;-65
2021/06/30 06:22:34;;;;;;;901.07;828.73;;;;;;;-144.99;93.47;52244.28;5066657;28;20605;-66
2021/06/30 06:25:02;;;;;;;883.03;811.23;;;;;;;-144.99;93.34;52250.38;5066259;28;20213;-66
2021/06/30 06:27:28;;;;;;;891.60;819.80;;;;;;;-144.99;93.36;52219.81;5067615;28;20207;-66
2021/06/30 06:29:55;;;;;;;906.77;834.37;;;;;;;-144.99;93.28;52260.56;5066592;28;20234;-67
2021/06/30 06:32:23;;;;;;;908.80;836.17;;;;;;;-144.99;93.22;52219.81;5066250;28;20222;-65
2021/06/30 06:34:51;;;;;;;933.50;860.20;;;;;;;-144.99;93.26;52232.03;5066232;28;20207;-65
2021/06/30 06:37:18;;;;;;;959.33;884.70;;;;;;;-144.99;93.17;52256.50;5066225;28;20293;-66
2021/06/30 06:39:45;;;;;;;966.37;891.17;;;;;;;-144.99;93.08;52223.88;5066065;28;20256;-66
2021/06/30 06:42:12;;;;;;;979.30;904.03;;;;;;;-144.99;93.12;52252.44;5066803;28;20547;-65
2021/06/30 06:44:41;;;;;;;964.43;889.77;;;;;;;-144.99;93.03;52244.28;5066148;28;20314;-65
2021/06/30 06:47:08;;;;;;;987.97;912.33;;;;;;;-144.99;93.18;52227.97;5066028;28;20576;-65
2021/06/30 06:49:36;;;;;;;934.47;860.63;;;;;;;-144.99;93.07;52248.34;5065642;28;20357;-65
2021/06/30 06:52:03;;;;;;;949.17;874.47;;;;;;;-144.99;93.05;52248.34;5065957;28;20216;-64
2021/06/30 06:54:30;;;;;;;961.47;886.87;;;;;;;-144.99;93.01;52195.34;5065753;28;20218;-65
2021/06/30 06:56:57;;;;;;;944.00;869.53;;;;;;;-144.99;92.98;52227.97;5065507;28;20246;-66
2021/06/30 06:59:23;;;;;;;980.00;904.60;;;;;;;-144.99;92.86;52244.28;5065164;28;20243;-65
2021/06/30 07:01:50;;;;;;;939.87;866.07;;;;;;;-144.99;92.76;52240.19;5065612;28;20707;-65
2021/06/30 07:04:16;;;;;;;952.63;878.30;;;;;;;-144.99;92.65;52240.19;5065861;28;20294;-65
2021/06/30 07:06:44;;;;;;;934.17;860.23;;;;;;;-144.99;92.66;52234.09;5059883;28;20209;-66
2021/06/30 07:09:11;;;;;;;966.43;892.03;;;;;;;-144.99;92.57;52240.19;5066104;28;20242;-66
2021/06/30 07:11:37;;;;;;;953.37;878.60;;;;;;;-144.99;92.45;52207.59;5066133;28;20205;-66
2021/06/30 07:14:04;;;;;;;951.50;877.10;;;;;;;-144.99;92.53;52215.75;5066638;28;20692;-66
2021/06/30 07:16:31;;;;;;;952.90;878.27;;;;;;;-144.99;92.17;52191.28;5066411;28;20242;-65
2021/06/30 07:18:57;;;;;;;967.70;892.20;;;;;;;-144.99;91.86;52201.47;5065009;28;20231;-66
2021/06/30 07:21:24;;;;;;;925.77;852.03;;;;;;;-144.99;91.75;52199.44;5064131;28;20586;-65
2021/06/30 07:23:52;;;;;;;974.80;899.63;;;;;;;-144.99;91.69;52256.50;5065964;28;20215;-65
2021/06/30 07:26:19;;;;;;;961.97;887.23;;;;;;;-144.99;91.26;52230.00;5066142;28;20210;-65
2021/06/30 07:28:46;;;;;;;938.83;864.93;;;;;;;-144.99;91.26;52236.13;5065182;28;20289;-64
2021/06/30 07:31:13;;;;;;;957.43;882.40;;;;;;;-144.99;91.40;52242.22;5065284;28;20210;-65
2021/06/30 07:33:40;;;;;;;966.77;891.80;;;;;;;-144.99;91.57;52248.34;5066481;28;20564;-66
2021/06/30 07:36:08;;;;;;;974.83;899.40;;;;;;;-144.99;91.69;52240.19;5065349;28;20518;-65
2021/06/30 07:38:35;;;;;;;945.17;870.97;;;;;;;-144.99;91.81;52211.66;5065786;28;20336;-66
2021/06/30 07:41:04;;;;;;;946.07;871.97;;;;;;;-144.99;91.98;52244.28;5065973;28;20602;-65
2021/06/30 07:43:31;;;;;;;960.27;885.73;;;;;;;-144.99;92.40;52244.28;5065279;28;20729;-65
2021/06/30 07:45:57;;;;;;;947.90;873.37;;;;;;;-144.99;92.51;52244.28;5065805;28;20207;-66
2021/06/30 07:48:25;;;;;;;967.20;892.03;;;;;;;-144.99;92.96;52260.56;5065228;28;20211;-66
2021/06/30 07:50:51;;;;;;;920.23;846.93;;;;;;;-144.99;92.59;52236.13;5065388;28;20252;-66
2021/06/30 07:53:18;;;;;;;948.60;874.47;;;;;;;-144.99;92.90;52256.50;5060109;28;20732;-66
2021/06/30 07:55:46;;;;;;;940.03;865.60;;;;;;;-144.99;92.75;52248.34;5065528;28;20568;-66
2021/06/30 07:58:14;;;;;;;953.07;878.63;;;;;;;-144.99;92.64;52244.28;5065090;28;20265;-67
2021/06/30 08:00:41;;;;;;;925.60;851.97;;;;;;;-144.99;92.68;52227.97;5062952;28;20411;-66
2021/06/30 08:03:13;;;;;;;909.33;836.27;;;;;;;-144.99;92.64;52236.13;5065999;28;20218;-66
2021/06/30 08:05:39;;;;;;;928.73;854.93;;;;;;;-144.99;92.50;52236.13;5061171;28;20692;-65
2021/06/30 08:08:06;;;;;;;913.50;840.57;;;;;;;-144.99;92.26;52199.44;5066030;28;20219;-66
2021/06/30 08:10:36;;;;;;;906.30;833.13;;;;;;;-144.99;92.06;52244.28;5065115;28;20218;-67
2021/06/30 08:13:02;;;;;;;916.50;843.50;;;;;;;-144.99;92.05;52240.19;5068459;28;20697;-66
2021/06/30 08:15:30;;;;;;;921.50;848.33;;;;;;;-144.99;91.67;52227.97;5069070;28;20316;-66
2021/06/30 08:17:57;;;;;;;884.80;812.87;;;;;;;-144.99;91.59;52252.44;5069171;28;20220;-65
2021/06/30 08:20:24;;;;;;;898.87;826.37;;;;;;;-144.99;91.24;52211.66;5066545;28;20252;-65
2021/06/30 08:22:51;;;;;;;896.00;823.77;;;;;;;-144.99;90.83;52238.16;5068884;28;20826;-65
2021/06/30 08:25:18;;;;;;;906.30;833.60;;;;;;;-144.99;90.57;52205.53;5068813;28;20227;-65
2021/06/30 08:27:44;;;;;;;922.80;849.80;;;;;;;-144.99;90.25;52268.72;5069004;28;20214;-65
2021/06/30 08:30:12;;;;;;;921.80;848.73;;;;;;;-144.99;90.00;52256.50;5068410;28;20320;-66
2021/06/30 08:32:41;;;;;;;927.20;854.53;;;;;;;-144.99;89.65;52179.06;5068473;28;20224;-65
2021/06/30 08:35:09;;;;;;;926.23;853.30;;;;;;;-144.99;89.38;52179.06;5068592;28;20223;-65
2021/06/30 08:37:39;;;;;;;946.50;872.90;;;;;;;-144.99;88.98;52203.50;5068418;28;20319;-65
2021/06/30 08:40:08;;;;;;;900.03;828.07;;;;;;;-144.99;88.48;52191.28;5068349;28;20279;-66
2021/06/30 08:42:35;;;;;;;946.43;872.37;;;;;;;-144.99;88.35;52187.19;5067539;28;20208;-67
2021/06/30 08:45:01;;;;;;;942.80;869.77;;;;;;;-144.99;88.42;52203.50;5068684;28;20251;-66
2021/06/30 08:47:34;;;;;;;928.47;855.63;;;;;;;-144.99;88.28;52254.47;5068492;28;20204;-66
2021/06/30 08:50:05;;;;;;;917.33;845.07;;;;;;;-144.99;88.14;52221.84;5068848;28;20244;-65
2021/06/30 08:52:34;;;;;;;967.57;893.27;;;;;;;-144.99;87.76;52232.03;5063562;28;20212;-65
2021/06/30 08:55:01;;;;;;;942.43;868.87;;;;;;;-144.99;87.74;52252.44;5068464;28;20292;-65
2021/06/30 08:57:30;;;;;;;989.90;915.20;;;;;;;-144.99;87.91;52236.13;5068995;28;20234;-65
2021/06/30 08:59:57;;;;;;;984.83;910.67;;;;;;;-144.99;88.21;52244.28;5068293;28;20231;-65
2021/06/30 09:02:24;;;;;;;936.07;863.00;;;;;;;-144.99;88.07;52244.28;5067851;28;20208;-65
2021/06/30 09:04:59;;;;;;;949.83;876.67;;;;;;;-144.99;87.88;52219.81;5067640;28;20237;-66
2021/06/30 09:07:27;;;;;;;971.33;897.20;;;;;;;-144.99;87.61;52197.41;5065451;28;20264;-66
2021/06/30 09:09:54;;;;;;;954.47;880.77;;;;;;;-144.99;86.23;52215.75;5068155;28;20342;-65
2021/06/30 09:12:39;;;;;;;961.50;887.93;;;;;;;-144.99;85.80;52154.59;5067755;28;20661;-65
2021/06/30 09:15:17;;;;;;;951.23;878.03;;;;;;;-144.99;84.81;52187.19;5068256;28;20865;-66
2021/06/30 09:17:46;;;;;;;956.50;883.50;;;;;;;-144.99;83.59;52203.50;5068312;28;20224;-65
2021/06/30 09:20:13;;;;;;;948.07;874.93;;;;;;;-144.99;81.84;52174.97;5067609;28;20302;-65
2021/06/30 09:22:46;;;;;;;996.47;921.80;;;;;;;-144.99;81.38;52189.25;5059869;28;20585;-65
2021/06/30 09:25:26;;;;;;;993.87;919.27;;;;;;;-144.99;81.02;52185.16;5067450;28;20890;-66
2021/06/30 09:27:53;;;;;;;995.97;921.33;;;;;;;-144.99;80.63;52154.59;5069142;28;20205;-65
2021/06/30 09:30:20;;;;;;;1016.67;941.33;;;;;;;-144.99;79.29;52150.53;5069322;28;20231;-65
2021/06/30 09:33:07;;;;;;;1027.60;951.73;;;;;;;-144.99;78.89;52213.69;5067456;28;20225;-66
2021/06/30 09:35:36;;;;;;;1035.10;958.43;;;;;;;-144.99;78.31;52174.97;5059980;28;20324;-67
2021/06/30 09:38:29;;;;;;;1029.43;953.50;;;;;;;-144.99;78.18;52195.34;5067555;28;20328;-66
2021/06/30 09:40:56;;;;;;;994.70;920.07;;;;;;;-144.99;78.18;52207.59;5067169;28;20215;-66
2021/06/30 09:43:28;;;;;;;1012.63;937.30;;;;;;;-144.99;78.82;52223.88;5068183;28;20214;-66
2021/06/30 09:45:57;;;;;;;1015.37;938.87;;;;;;;-144.99;79.61;52223.88;5067354;28;20244;-67
2021/06/30 09:48:34;;;;;;;1010.60;935.33;;;;;;;-144.99;79.92;52232.03;5068037;28;20209;-65
2021/06/30 09:51:04;;;;;;;981.53;907.53;;;;;;;-144.99;80.93;52195.34;5067369;28;20308;-65
2021/06/30 09:53:39;;;;;;;970.23;896.47;;;;;;;-144.99;81.84;52240.19;5067032;28;20224;-65
2021/06/30 09:56:10;;;;;;;1008.97;934.17;;;;;;;-144.99;83.04;52219.81;5066375;28;20215;-65
2021/06/30 09:58:37;;;;;;;956.67;883.80;;;;;;;-144.99;82.92;52207.59;5067057;28;20232;-65
2021/06/30 10:01:18;;;;;;;947.73;875.03;;;;;;;-144.99;82.83;52203.50;5066927;28;20302;-66
2021/06/30 10:03:45;;;;;;;956.33;883.00;;;;;;;-144.99;81.47;52215.75;5067679;28;20216;-67
2021/06/30 10:06:28;;;;;;;962.07;889.27;;;;;;;-144.99;81.38;52232.03;5066208;28;20216;-66
2021/06/30 10:08:58;;;;;;;953.77;880.97;;;;;;;-144.99;80.84;52240.19;5064356;28;20279;-65
2021/06/30 10:11:24;;;;;;;999.30;924.43;;;;;;;-144.99;81.35;52215.75;5066488;28;20216;-64
2021/06/30 10:13:51;;;;;;;984.83;910.90;;;;;;;-144.99;81.43;52207.59;5066921;28;20240;-65
2021/06/30 10:16:19;;;;;;;987.10;913.10;;;;;;;-144.99;81.68;52256.50;5065480;28;20231;-65
2021/06/30 10:18:49;;;;;;;986.43;911.87;;;;;;;-144.99;81.98;52221.84;5066173;28;20223;-66
2021/06/30 10:21:18;;;;;;;999.43;924.13;;;;;;;-144.99;81.33;52223.88;5066564;28;20204;-69
2021/06/30 10:23:45;;;;;;;976.93;902.97;;;;;;;-144.99;81.51;52227.97;5066977;28;20205;-65
2021/06/30 10:26:14;;;;;;;966.10;891.90;;;;;;;-144.99;80.86;52227.97;5066866;28;20277;-64
2021/06/30 10:28:41;;;;;;;983.13;909.10;;;;;;;-144.99;80.61;52254.47;5066287;28;20229;-65
2021/06/30 10:31:07;;;;;;;955.30;882.00;;;;;;;-144.99;80.49;52232.03;5066273;28;20215;-65
2021/06/30 10:33:38;;;;;;;980.97;906.93;;;;;;;-144.99;80.91;52248.34;5067268;28;20216;-68
2021/06/30 10:36:05;;;;;;;992.10;917.53;;;;;;;-144.99;80.17;52252.44;5066281;28;20228;-66
2021/06/30 10:38:54;;;;;;;955.77;882.50;;;;;;;-144.99;79.51;52211.66;5066578;28;20221;-67
2021/06/30 10:41:39;;;;;;;988.13;914.37;;;;;;;-144.99;79.53;52234.09;5066575;28;20631;-66
2021/06/30 10:44:12;;;;;;;957.53;883.93;;;;;;;-144.99;79.76;52195.34;5066550;28;20216;-65
2021/06/30 10:46:39;;;;;;;953.77;881.13;;;;;;;-144.99;79.46;52170.91;5066835;28;20248;-65
2021/06/30 10:49:24;;;;;;;953.23;879.80;;;;;;;-144.99;79.65;52191.28;5065672;28;20230;-66